Tiempo atmosférico en la estación meteorológica de Fuente Palmera, Córdoba (120 m.)



Fecha
DESCASC
Temp. máxima en grados centígrados (hora)
DESCASC
Temp. mínima en grados centígrados (hora)
DESCASC
Temp. media en grados centígrados
DESCASC
Racha de viento máxima en m/sg (hora)
DESCASC
Velocidad máxima media en intervalos de 10 minutos(hora)
DESCASC
Precipitaciones diarias en mm
DESCASC
Precipitaciones de 00:00 a 06:00 en mm
DESCASC
Precipitaciones de 06:00 a 12:00 en mm
DESCASC
Precipitaciones de 12:00 a 18:00 en mm
DESCASC
Precipitaciones de 18:00 a 24:00 en mm
DESCASC
04-03-2021 18.8 (15:10) 8 (08:10) 13.4 7.5 (14:40) 5.28 (14:40) 0 0 0 0 0
03-03-2021 20.1 (17:10) 9.8 (06:00) 15 6.11 (14:50) 3.61 (20:50) 0 0 0 0 0
02-03-2021 19.9 (16:40) 9.1 (07:50) 14.5 6.11 (13:20) 3.33 (16:00) 0 0 0 0 0
01-03-2021 19.3 (16:30) 9.3 (00:30) 14.3 7.78 (11:40) 5 (11:40) 0.8 0.6 0.2 0 0
28-02-2021 18.4 (15:50) 8 (00:00) 13.2 5.56 (14:20) 3.61 (11:50) 0 0 0 0 0
27-02-2021 16.6 (15:10) 7.2 (00:00) 11.9 4.72 (15:30) 2.78 (23:30) 0 0 0 0 0
26-02-2021 19 (17:00) 9.8 (00:00) 14.4 5 (15:40) 2.78 (17:30) 0 0 0 0 0
25-02-2021 16.7 (16:40) 7.9 (00:00) 12.3 5.28 (04:30) 3.06 (13:00) 0 0 0 0 0
24-02-2021 20 (15:50) 5.7 (00:00) 12.8 9.17 (11:20) 6.11 (11:20) 0 0 0 0 0
23-02-2021 -- (--) -- (--) -- -- (--) -- (--) -- -- -- 0 0
22-02-2021 -- (--) -- (--) -- -- (--) -- (--) -- -- -- -- --
21-02-2021 -- (--) -- (--) -- -- (--) -- (--) -- -- -- -- --
20-02-2021 -- (--) -- (--) -- -- (--) -- (--) -- -- -- -- --
19-02-2021 -- (--) -- (--) -- -- (--) -- (--) -- 0.2 0 -- --
18-02-2021 15.5 (17:00) 6.7 (00:00) 11.1 5.56 (15:30) 3.33 (16:40) 0 0 0 0 0
17-02-2021 22.3 (17:40) 5.8 (00:00) 14 8.33 (12:20) 5 (12:40) 0 0 0 0 0
16-02-2021 19.9 (17:40) 5.7 (00:00) 12.8 6.11 (11:50) 4.17 (11:40) 0 0 0 0 0
15-02-2021 19.8 (15:40) 6.4 (00:00) 13.1 10.28 (11:40) 5.83 (14:50) 0 0 0 0 0
14-02-2021 20.8 (16:00) 6.2 (00:00) 13.5 7.5 (12:20) 5 (12:20) 0 0 0 0 0
13-02-2021 19.5 (16:50) 6.7 (00:00) 13.1 4.72 (10:40) 3.33 (10:50) 0 0 0 0 0
12-02-2021 18.6 (16:30) 9.8 (00:00) 14.2 8.61 (11:00) 5.56 (11:00) 0.4 0 0.4 0 0
11-02-2021 16.4 (15:00) 13.7 (00:00) 15 7.5 (00:40) 4.72 (00:50) 0.8 0 0.6 0.2 0
10-02-2021 17.2 (14:20) 12.1 (00:00) 14.7 14.44 (10:50) 8.61 (11:20) 8.4 0 2 1.4 5
09-02-2021 15.3 (12:40) 10.2 (00:00) 12.8 16.67 (14:40) 9.72 (14:50) 9 0.2 0.8 4.6 3.4
08-02-2021 15.3 (16:00) 10.4 (00:00) 12.8 17.5 (06:10) 9.44 (06:10) 8.4 7.8 0.6 0 0
07-02-2021 15.3 (14:40) 9.7 (00:00) 12.5 12.78 (16:40) 8.06 (16:10) 0 0 0 0 0
06-02-2021 14.9 (16:10) 9.9 (00:00) 12.4 10.83 (15:10) 5.83 (16:50) 3 2.6 0.4 0 0
05-02-2021 15.2 (15:20) 9.2 (00:00) 12.2 6.94 (16:40) 4.17 (16:40) 0 0 0 0 0
04-02-2021 20 (14:40) 11 (00:00) 15.5 6.11 (14:30) 3.61 (17:00) 0 0 0 0 0

Gráficas

Temp. máximas Temp. mínimas Temp. medias Precipitaciones Rachas de viento máximas Velocidades máximas media en intervalos de 10 minutos

Datos horarios

Fecha y hora oficial Temperatura (ºC) Velocidad del viento (km/h) Dirección del viento Racha (km/h) Dirección de racha Precipitación (mm) Presión (hPa) Tendencia (hPa) Humedad (%)
2021-03-05 23:00:00 12 3 Este 5 Este 0 -- -- 94
2021-03-05 22:00:00 12.4 0 Calma 5 Este 0 -- -- 95
2021-03-05 21:00:00 12.4 0 Calma 4 Norte 0 -- -- 95
2021-03-05 20:00:00 12.6 0 Calma 7 Norte 0.6 -- -- 94
2021-03-05 19:00:00 13.1 2 Norte 4 Norte 0.8 -- -- 90
2021-03-05 18:00:00 13.5 0 Calma 10 Oeste 1.4 -- -- 94
2021-03-05 17:00:00 13.7 6 Oeste 14 Oeste 0.6 -- -- 91
2021-03-05 16:00:00 14 10 Oeste 18 Oeste 0.2 -- -- 88
2021-03-05 15:00:00 14.1 11 Sudoeste 20 Sudoeste 0.6 -- -- 84
2021-03-05 14:00:00 16.3 4 Sur 15 Nordeste 0 -- -- 53
2021-03-05 13:00:00 16.3 10 Este 23 Este 0 -- -- 51
2021-03-05 12:00:00 14.9 13 Este 25 Este 0 -- -- 56
2021-03-05 11:00:00 13.7 17 Este 34 Este 0 -- -- 58
2021-03-05 10:00:00 12.9 21 Este 33 Este 0 -- -- 60
2021-03-05 09:00:00 11.7 17 Este 25 Este 0 -- -- 68
2021-03-05 08:00:00 10.4 10 Este 19 Este 0 -- -- 75
2021-03-05 07:00:00 11.1 12 Este 24 Este 0 -- -- 72
2021-03-05 06:00:00 11.1 10 Este 16 Este 0 -- -- 74
2021-03-05 05:00:00 11.6 9 Este 17 Este 0 -- -- 70
2021-03-05 04:00:00 11.1 5 Nordeste 13 Este 0 -- -- 74
2021-03-05 03:00:00 11.3 6 Nordeste 13 Este 0 -- -- 74
2021-03-05 02:00:00 12.5 11 Sudeste 20 Sudeste 0 -- -- 67
2021-03-05 01:00:00 11.7 5 Sudeste 9 Sudeste 0 -- -- 72
2021-03-05 00:00:00 11.6 5 Este 12 Sudeste 0 -- -- 68
2021-03-04 23:00:00 12.3 6 Sudeste 10 Sudeste 0 -- -- 65
2021-03-04 22:00:00 13.1 6 Este 17 Sudeste 0 -- -- 63
2021-03-04 21:00:00 13 9 Sudeste 15 Sur 0 -- -- 63
2021-03-04 20:00:00 14 10 Sur 17 Sur 0 -- -- 57
2021-03-04 19:00:00 15.3 9 Sur 25 Sur 0 -- -- 52
2021-03-04 18:00:00 17.3 13 Sur 26 Sur 0 -- -- 45
2021-03-04 17:00:00 18.4 14 Sur 24 Sur 0 -- -- 41
2021-03-04 16:00:00 18.5 12 Sur 27 Sudeste 0 -- -- 40
2021-03-04 15:00:00 18.6 16 Sudeste 27 Sudeste 0 -- -- 40
2021-03-04 14:00:00 17.7 14 Sudeste 24 Sur 0 -- -- 53
2021-03-04 13:00:00 16.1 11 Este 19 Este 0 -- -- 69
2021-03-04 12:00:00 14 12 Nordeste 22 Nordeste 0 -- -- 82
2021-03-04 11:00:00 13.1 10 Nordeste 16 Este 0 -- -- 87
2021-03-04 10:00:00 11.4 12 Este 19 Nordeste 0 -- -- 93
2021-03-04 09:00:00 8.5 8 Este 15 Este 0 -- -- 97
2021-03-04 08:00:00 8.1 5 Este 17 Este 0 -- -- 97
2021-03-04 07:00:00 9.1 5 Este 9 Este 0 -- -- 96
2021-03-04 06:00:00 9.6 5 Este 10 Este 0 -- -- 95
2021-03-04 05:00:00 9.9 4 Este 8 Este 0 -- -- 95
2021-03-04 04:00:00 10.3 7 Este 10 Este 0 -- -- 96
2021-03-04 03:00:00 10 6 Este 10 Este 0 -- -- 94
2021-03-04 02:00:00 10.9 2 Nordeste 4 Nordeste 0 -- -- 91
2021-03-04 01:00:00 11.4 0 Calma 2 Noroeste 0 -- -- 89
2021-03-04 00:00:00 12.3 0 Calma 8 Sudeste 0 -- -- 83
2021-03-03 23:00:00 13.1 4 Este 18 Sur 0 -- -- 79
2021-03-03 22:00:00 14.1 12 Sur 20 Sur 0 -- -- 74
2021-03-03 21:00:00 15.3 10 Sur 22 Sur 0 -- -- 68
2021-03-03 20:00:00 17.1 4 Sudoeste 6 Sudoeste 0 -- -- 59
2021-03-03 19:00:00 18.8 4 Sudoeste 7 Sudeste 0 -- -- 52
2021-03-03 18:00:00 19.7 9 Sudeste 17 Sudeste 0 -- -- 42
2021-03-03 17:00:00 20 8 Sudeste 18 Este 0 -- -- 41
2021-03-03 16:00:00 19.9 9 Este 18 Este 0 -- -- 42
2021-03-03 15:00:00 19.4 11 Este 22 Este 0 -- -- 45
2021-03-03 14:00:00 18.7 10 Nordeste 16 Este 0 -- -- 52
2021-03-03 13:00:00 17.5 8 Nordeste 16 Este 0 -- -- 60
2021-03-03 12:00:00 16.3 8 Nordeste 13 Nordeste 0 -- -- 66
2021-03-03 11:00:00 14.5 6 Nordeste 13 Este 0 -- -- 73
2021-03-03 10:00:00 12.5 5 Este 11 Nordeste 0 -- -- 88
2021-03-03 09:00:00 10.6 4 Este 8 Este 0 -- -- 92
2021-03-03 08:00:00 10.4 2 Este 5 Nordeste 0 -- -- 91
2021-03-03 07:00:00 10.3 3 Sudeste 5 Sudeste 0 -- -- 92
2021-03-03 06:00:00 9.8 3 Nordeste 6 Nordeste 0 -- -- 93
2021-03-03 05:00:00 10.3 0 Calma 8 Este 0 -- -- 93
2021-03-03 04:00:00 10.3 2 Nordeste 8 Nordeste 0 -- -- 93
2021-03-03 03:00:00 10.3 0 Calma 5 Este 0 -- -- 92
2021-03-03 02:00:00 11.6 3 Sudeste 8 Este 0 -- -- 88
2021-03-03 01:00:00 12.3 6 Este 10 Este 0 -- -- 83
2021-03-03 00:00:00 12.7 5 Nordeste 13 Nordeste 0 -- -- 82
2021-03-02 23:00:00 13.2 6 Sudeste 8 Sudeste 0 -- -- 79
2021-03-02 22:00:00 13.5 4 Este 5 Este 0 -- -- 79
2021-03-02 21:00:00 15 6 Oeste 8 Oeste 0 -- -- 70
2021-03-02 20:00:00 16.6 0 Calma 7 Sudeste 0 -- -- 60
2021-03-02 19:00:00 18.3 6 Sudeste 13 Sudeste 0 -- -- 54
2021-03-02 18:00:00 19.7 6 Sudeste 14 Este 0 -- -- 47
2021-03-02 17:00:00 19.9 8 Sudeste 16 Este 0 -- -- 48
2021-03-02 16:00:00 19.6 12 Este 18 Este 0 -- -- 50
2021-03-02 15:00:00 19 9 Este 18 Este 0 -- -- 53
2021-03-02 14:00:00 18.2 10 Este 22 Este 0 -- -- 57
2021-03-02 13:00:00 17.1 7 Nordeste 18 Nordeste 0 -- -- 64
2021-03-02 12:00:00 15.9 9 Nordeste 18 Este 0 -- -- 70
2021-03-02 11:00:00 14 10 Este 17 Nordeste 0 -- -- 79
2021-03-02 10:00:00 11.7 8 Este 11 Este 0 -- -- 90
2021-03-02 09:00:00 9.6 2 Nordeste 9 Sudeste 0 -- -- 97
2021-03-02 08:00:00 9.2 3 Este 6 Sudeste 0 -- -- 95
2021-03-02 07:00:00 9.3 0 Calma 5 Noroeste 0 -- -- 95
2021-03-02 06:00:00 9.9 2 Sudeste 8 Este 0 -- -- 93
2021-03-02 05:00:00 10.5 3 Este 5 Nordeste 0 -- -- 92
2021-03-02 04:00:00 11.3 2 Norte 8 Oeste 0 -- -- 91
2021-03-02 03:00:00 12 2 Oeste 6 Sudeste 0 -- -- 86
2021-03-02 02:00:00 12.7 4 Sudeste 5 Noroeste 0 -- -- 81
2021-03-02 01:00:00 13.1 0 Calma 8 Sur 0 -- -- 79
2021-03-02 00:00:00 13.9 4 Sur 8 Sudeste 0 -- -- 71
2021-03-01 23:00:00 14.7 3 Este 16 Norte 0 -- -- 64
2021-03-01 22:00:00 15.5 11 Norte 15 Norte 0 -- -- 62
2021-03-01 21:00:00 16.3 6 Oeste 9 Oeste 0 -- -- 59
2021-03-01 20:00:00 17.2 5 Noroeste 9 Noroeste 0 -- -- 53
2021-03-01 19:00:00 18.2 4 Noroeste 10 Noroeste 0 -- -- 49
2021-03-01 18:00:00 18.8 6 Norte 12 Norte 0 -- -- 46
2021-03-01 17:00:00 19.2 3 Norte 12 Nordeste 0 -- -- 43
2021-03-01 16:00:00 18.8 2 Nordeste 12 Este 0 -- -- 47
2021-03-01 15:00:00 18.3 7 Este 19 Este 0 -- -- 53
2021-03-01 14:00:00 18.5 11 Este 21 Este 0 -- -- 53
2021-03-01 13:00:00 17.1 13 Este 25 Este 0 -- -- 60
2021-03-01 12:00:00 15.8 15 Este 28 Este 0 -- -- 63
2021-03-01 11:00:00 14.9 13 Nordeste 22 Este 0 -- -- 71
2021-03-01 10:00:00 12.5 5 Nordeste 8 Nordeste 0 -- -- 89
2021-03-01 09:00:00 10.1 2 Este 7 Este 0 -- -- 96
2021-03-01 08:00:00 9.8 5 Nordeste 16 Este 0 -- -- 95
2021-03-01 07:00:00 9.9 9 Nordeste 14 Nordeste 0.2 -- -- 95
2021-03-01 06:00:00 10 5 Nordeste 12 Nordeste 0.4 -- -- 94
2021-03-01 05:00:00 10.3 4 Nordeste 8 Este 0.2 -- -- 92
2021-03-01 04:00:00 10.3 6 Este 9 Este 0 -- -- 91
2021-03-01 03:00:00 10.1 5 Este 8 Este 0 -- -- 92
2021-03-01 02:00:00 9.6 4 Este 9 Nordeste 0 -- -- 93
2021-03-01 01:00:00 9.3 5 Este 7 Este 0 -- -- 91
2021-03-01 00:00:00 10.4 0 Calma 5 Sudoeste 0 -- -- 85
2021-02-28 23:00:00 11.9 4 Sudoeste 5 Sudoeste 0 -- -- 78
2021-02-28 22:00:00 12.5 3 Noroeste 7 Noroeste 0 -- -- 76
2021-02-28 21:00:00 12.7 4 Noroeste 12 Sudoeste 0 -- -- 76
2021-02-28 20:00:00 14.1 10 Sudoeste 15 Sudoeste 0 -- -- 69
2021-02-28 19:00:00 17.5 0 Calma 4 Noroeste 0 -- -- 54
2021-02-28 18:00:00 18 0 Calma 12 Nordeste 0 -- -- 51
2021-02-28 17:00:00 18 5 Nordeste 15 Nordeste 0 -- -- 52
2021-02-28 16:00:00 18.2 10 Este 19 Nordeste 0 -- -- 53
2021-02-28 15:00:00 17.9 10 Nordeste 20 Este 0 -- -- 55
2021-02-28 14:00:00 17.6 8 Este 19 Este 0 -- -- 59
2021-02-28 13:00:00 16.5 10 Este 19 Sudeste 0 -- -- 63
2021-02-28 12:00:00 14.9 10 Este 17 Nordeste 0 -- -- 69
2021-02-28 11:00:00 12.1 10 Este 17 Este 0 -- -- 86
2021-02-28 10:00:00 10.6 8 Este 13 Este 0 -- -- 91
2021-02-28 09:00:00 8.9 4 Este 14 Este 0 -- -- 96
2021-02-28 08:00:00 8.1 6 Este 11 Este 0 -- -- 96
2021-02-28 07:00:00 8.5 8 Este 11 Este 0 -- -- 95
2021-02-28 06:00:00 8.8 3 Este 6 Este 0 -- -- 94
2021-02-28 05:00:00 9.4 5 Sudeste 7 Este 0 -- -- 94
2021-02-28 04:00:00 9.7 4 Este 9 Nordeste 0 -- -- 92
2021-02-28 03:00:00 10.3 3 Nordeste 7 Este 0 -- -- 89
2021-02-28 02:00:00 10.7 4 Este 6 Este 0 -- -- 87
2021-02-28 01:00:00 10.6 3 Noroeste 9 Sudoeste 0 -- -- 85
2021-02-28 00:00:00 11.3 5 Sur 16 Sur 0 -- -- 81
2021-02-27 23:00:00 11.6 7 Sur 13 Sur 0 -- -- 80
2021-02-27 22:00:00 12.7 8 Sudoeste 13 Sudoeste 0 -- -- 77
2021-02-27 21:00:00 13.3 6 Sur 9 Sur 0 -- -- 80
2021-02-27 20:00:00 13.9 3 Sudeste 6 Sudeste 0 -- -- 79
2021-02-27 19:00:00 15.3 2 Sur 4 Sur 0 -- -- 71
2021-02-27 18:00:00 16.1 5 Sudeste 10 Este 0 -- -- 67
2021-02-27 17:00:00 16.3 8 Este 13 Sudeste 0 -- -- 66
2021-02-27 16:00:00 16.3 5 Este 17 Este 0 -- -- 66
2021-02-27 15:00:00 16.4 8 Este 14 Este 0 -- -- 64
2021-02-27 14:00:00 15.8 6 Este 13 Este 0 -- -- 71
2021-02-27 13:00:00 14.6 8 Nordeste 13 Nordeste 0 -- -- 77
2021-02-27 12:00:00 13.3 6 Nordeste 13 Nordeste 0 -- -- 84
2021-02-27 11:00:00 10.7 6 Nordeste 10 Nordeste 0 -- -- 93
2021-02-27 10:00:00 9.3 4 Este 8 Este 0 -- -- 97
2021-02-27 09:00:00 7.8 2 Este 10 Este 0 -- -- 98
2021-02-27 08:00:00 7.4 6 Este 10 Este 0 -- -- 97
2021-02-27 07:00:00 7.3 6 Este 10 Este 0 -- -- 96
2021-02-27 06:00:00 7.7 7 Este 10 Nordeste 0 -- -- 94
2021-02-27 05:00:00 8.4 5 Sudeste 9 Este 0 -- -- 94
2021-02-27 04:00:00 8.5 4 Este 9 Este 0 -- -- 94
2021-02-27 03:00:00 8.8 4 Este 7 Este 0 -- -- 93
2021-02-27 02:00:00 9.3 5 Este 9 Este 0 -- -- 93
2021-02-27 01:00:00 9.7 3 Este 7 Este 0 -- -- 91
2021-02-27 00:00:00 10.5 0 Calma 4 Oeste 0 -- -- 86
2021-02-26 23:00:00 11 3 Oeste 6 Oeste 0 -- -- 83
2021-02-26 22:00:00 11.5 4 Noroeste 11 Oeste 0 -- -- 83
2021-02-26 21:00:00 12.5 8 Oeste 11 Oeste 0 -- -- 78
2021-02-26 20:00:00 14.2 8 Sudoeste 12 Sudoeste 0 -- -- 70
2021-02-26 19:00:00 16 8 Oeste 15 Oeste 0 -- -- 64
2021-02-26 18:00:00 18.1 10 Oeste 17 Oeste 0 -- -- 53
2021-02-26 17:00:00 19 9 Oeste 15 Oeste 0 -- -- 50
2021-02-26 16:00:00 18.5 6 Sudoeste 18 Sudoeste 0 -- -- 54
2021-02-26 15:00:00 18.5 4 Noroeste 11 Noroeste 0 -- -- 50
2021-02-26 14:00:00 18.1 2 Nordeste 10 Oeste 0 -- -- 51
2021-02-26 13:00:00 17 3 Noroeste 8 Norte 0 -- -- 55
2021-02-26 12:00:00 15.2 3 Norte 9 Nordeste 0 -- -- 68
2021-02-26 11:00:00 13.3 4 Norte 8 Norte 0 -- -- 82
2021-02-26 10:00:00 11.8 0 Calma 5 Sudeste 0 -- -- 91
2021-02-26 09:00:00 10.8 5 Sudeste 6 Sudeste 0 -- -- 94
2021-02-26 08:00:00 10.3 4 Nordeste 7 Nordeste 0 -- -- 94
2021-02-26 07:00:00 10 2 Nordeste 4 Nordeste 0 -- -- 95
2021-02-26 06:00:00 10.1 2 Este 5 Nordeste 0 -- -- 93
2021-02-26 05:00:00 10.2 3 Nordeste 8 Norte 0 -- -- 94
2021-02-26 04:00:00 9.8 4 Nordeste 8 Este 0 -- -- 96
2021-02-26 03:00:00 10.1 4 Sudeste 9 Este 0 -- -- 95
2021-02-26 02:00:00 10.3 6 Este 12 Nordeste 0 -- -- 93
2021-02-26 01:00:00 10.7 4 Sudeste 5 Este 0 -- -- 92
2021-02-26 00:00:00 11.5 0 Calma 6 Sudeste 0 -- -- 89
2021-02-25 23:00:00 11.8 0 Calma 8 Este 0 -- -- 87
2021-02-25 22:00:00 12.2 4 Este 5 Este 0 -- -- 85
2021-02-25 21:00:00 12.9 0 Calma 8 Sur 0 -- -- 77
2021-02-25 20:00:00 14.5 3 Sudeste 6 Sudeste 0 -- -- 70
2021-02-25 19:00:00 15.8 3 Este 9 Este 0 -- -- 64
2021-02-25 18:00:00 16.6 5 Este 12 Nordeste 0 -- -- 58
2021-02-25 17:00:00 16.6 6 Este 11 Este 0 -- -- 57
2021-02-25 16:00:00 16.5 8 Nordeste 15 Este 0 -- -- 56
2021-02-25 15:00:00 16.3 9 Nordeste 16 Este 0 -- -- 55
2021-02-25 14:00:00 15.9 9 Este 14 Este 0 -- -- 55
2021-02-25 13:00:00 15.5 11 Este 17 Este 0 -- -- 57
2021-02-25 12:00:00 14.6 9 Nordeste 15 Este 0 -- -- 60
2021-02-25 11:00:00 12.6 6 Nordeste 13 Nordeste 0 -- -- 77
2021-02-25 10:00:00 10.8 9 Este 12 Nordeste 0 -- -- 88
2021-02-25 09:00:00 8.6 4 Este 9 Este 0 -- -- 95
2021-02-25 08:00:00 7.9 5 Este 12 Este 0 -- -- 95
2021-02-25 07:00:00 7.9 6 Este 10 Este 0 -- -- 94
2021-02-25 06:00:00 9 4 Este 14 Este 0 -- -- 92
2021-02-25 05:00:00 9 6 Este 19 Este 0 -- -- 92
2021-02-25 04:00:00 9.4 5 Sudeste 12 Este 0 -- -- 90
2021-02-25 03:00:00 9.7 5 Este 11 Este 0 -- -- 91
2021-02-25 02:00:00 9.7 7 Este 11 Este 0 -- -- 91
2021-02-25 01:00:00 9.7 5 Este 9 Este 0 -- -- 90
2021-02-25 00:00:00 10.1 2 Norte 13 Sudoeste 0 -- -- 86
2021-02-24 23:00:00 10.8 6 Sudoeste 9 Sudoeste 0 -- -- 83
2021-02-24 22:00:00 11.7 3 Noroeste 5 Noroeste 0 -- -- 78
2021-02-24 21:00:00 12.6 4 Noroeste 9 Sur 0 -- -- 73
2021-02-24 20:00:00 14.1 7 Sur 11 Sur 0 -- -- 65
2021-02-24 19:00:00 16.2 7 Sur 25 Sur 0 -- -- 58
2021-02-24 18:00:00 18.4 17 Sur 32 Sur 0 -- -- 46
2021-02-24 17:00:00 19.5 15 Sur 30 Sur 0 -- -- 46
2021-02-24 16:00:00 19.9 18 Sur 30 Sudeste 0 -- -- 42
2021-02-24 15:00:00 19.4 19 Sudeste 33 Sur 0 -- -- 45
2021-02-24 14:00:00 18.1 11 Sudeste 21 Este 0 -- -- 47
2021-02-24 13:00:00 16.6 10 Nordeste 21 Este 0 -- -- 51
2021-02-24 12:00:00 15.2 15 Este 33 Este 0 -- -- 58
2021-02-24 11:00:00 13.2 16 Este 26 Este 0 -- -- 62
2021-02-24 10:00:00 9.4 5 Este 12 Este 0 -- -- 86
2021-02-24 09:00:00 7 4 Nordeste 11 Este 0 -- -- 93
2021-02-24 08:00:00 5.7 4 Nordeste 9 Este 0 -- -- 95
2021-02-24 07:00:00 5.8 8 Este 12 Nordeste 0 -- -- 95
2021-02-24 06:00:00 6.2 5 Este 9 Este 0 -- -- 93
2021-02-24 05:00:00 6.8 2 Nordeste 10 Este 0 -- -- 92
2021-02-24 04:00:00 7.2 3 Este 12 Este 0 -- -- 90
2021-02-24 03:00:00 7.4 5 Este 13 Nordeste 0 -- -- 87
2021-02-24 02:00:00 7.8 4 Este 10 Nordeste 0 -- -- 84
2021-02-24 01:00:00 8.2 4 Este 10 Nordeste 0 -- -- 83
2021-02-24 00:00:00 9 4 Este 8 Este 0 -- -- 76
2021-02-23 23:00:00 10.3 0 Calma 9 Noroeste 0 -- -- 69
2021-02-23 22:00:00 10.8 6 Noroeste 15 Sur 0 -- -- 67
2021-02-23 21:00:00 11.9 9 Sur 15 Sur 0 -- -- 62
2021-02-23 20:00:00 13.8 9 Sudoeste 14 Sur 0 -- -- 54
2021-02-23 19:00:00 16 5 Este 14 Nordeste 0 -- -- 44
2021-02-23 18:00:00 17.7 7 Este 15 Sudeste 0 -- -- 34
2021-02-23 17:00:00 18.1 3 Sudeste 22 Sudeste 0 -- -- 34
2021-02-23 16:00:00 17.9 8 Sur 14 Este 0 -- -- 36
2021-02-23 15:00:00 17 11 Sudeste 24 Este 0 -- -- 40
2021-02-23 14:00:00 15.8 15 Este 24 Este 0 -- -- 51
2021-02-23 13:00:00 14.6 14 Este 27 Nordeste 0 -- -- 57
2021-02-23 12:00:00 12.9 15 Nordeste 28 Este 0 -- -- 64
2021-02-23 11:00:00 10.6 14 Nordeste -- -- -- -- -- 76
2021-02-23 10:00:00 -- -- -- -- -- -- -- -- --
2021-02-23 09:00:00 -- -- -- -- -- -- -- -- --
2021-02-23 08:00:00 -- -- -- -- -- -- -- -- --
2021-02-23 07:00:00 -- -- -- -- -- -- -- -- --
2021-02-23 06:00:00 -- -- -- -- -- -- -- -- --
2021-02-23 05:00:00 -- -- -- -- -- -- -- -- --
2021-02-23 04:00:00 -- -- -- -- -- -- -- -- --
2021-02-23 03:00:00 -- -- -- -- -- -- -- -- --
2021-02-23 02:00:00 -- -- -- -- -- -- -- -- --
2021-02-23 01:00:00 -- -- -- -- -- -- -- -- --
2021-02-23 00:00:00 -- -- -- -- -- -- -- -- --
2021-02-22 23:00:00 -- -- -- -- -- -- -- -- --
2021-02-22 22:00:00 -- -- -- -- -- -- -- -- --
2021-02-22 21:00:00 -- -- -- -- -- -- -- -- --
2021-02-22 20:00:00 -- -- -- -- -- -- -- -- --
2021-02-22 19:00:00 -- -- -- -- -- -- -- -- --
2021-02-22 18:00:00 -- -- -- -- -- -- -- -- --
2021-02-22 17:00:00 -- -- -- -- -- -- -- -- --
2021-02-22 16:00:00 -- -- -- -- -- -- -- -- --
2021-02-22 15:00:00 -- -- -- -- -- -- -- -- --
2021-02-22 14:00:00 -- -- -- -- -- -- -- -- --
2021-02-22 13:00:00 -- -- -- -- -- -- -- -- --
2021-02-22 12:00:00 -- -- -- -- -- -- -- -- --
2021-02-22 11:00:00 -- -- -- -- -- -- -- -- --
2021-02-22 10:00:00 -- -- -- -- -- -- -- -- --
2021-02-22 09:00:00 -- -- -- -- -- -- -- -- --
2021-02-22 08:00:00 -- -- -- -- -- -- -- -- --
2021-02-22 07:00:00 -- -- -- -- -- -- -- -- --
2021-02-22 06:00:00 -- -- -- -- -- -- -- -- --
2021-02-22 05:00:00 -- -- -- -- -- -- -- -- --
2021-02-22 04:00:00 -- -- -- -- -- -- -- -- --
2021-02-22 03:00:00 -- -- -- -- -- -- -- -- --
2021-02-22 02:00:00 -- -- -- -- -- -- -- -- --
2021-02-22 01:00:00 -- -- -- -- -- -- -- -- --
2021-02-22 00:00:00 -- -- -- -- -- -- -- -- --
2021-02-21 23:00:00 -- -- -- -- -- -- -- -- --
2021-02-21 22:00:00 -- -- -- -- -- -- -- -- --
2021-02-21 21:00:00 -- -- -- -- -- -- -- -- --
2021-02-21 20:00:00 -- -- -- -- -- -- -- -- --
2021-02-21 19:00:00 -- -- -- -- -- -- -- -- --
2021-02-21 18:00:00 -- -- -- -- -- -- -- -- --
2021-02-21 17:00:00 -- -- -- -- -- -- -- -- --
2021-02-21 16:00:00 -- -- -- -- -- -- -- -- --
2021-02-21 15:00:00 -- -- -- -- -- -- -- -- --
2021-02-21 14:00:00 -- -- -- -- -- -- -- -- --
2021-02-21 13:00:00 -- -- -- -- -- -- -- -- --
2021-02-21 12:00:00 -- -- -- -- -- -- -- -- --
2021-02-21 11:00:00 -- -- -- -- -- -- -- -- --
2021-02-21 10:00:00 -- -- -- -- -- -- -- -- --
2021-02-21 09:00:00 -- -- -- -- -- -- -- -- --
2021-02-21 08:00:00 -- -- -- -- -- -- -- -- --
2021-02-21 07:00:00 -- -- -- -- -- -- -- -- --
2021-02-21 06:00:00 -- -- -- -- -- -- -- -- --
2021-02-21 05:00:00 -- -- -- -- -- -- -- -- --
2021-02-21 04:00:00 -- -- -- -- -- -- -- -- --
2021-02-21 03:00:00 -- -- -- -- -- -- -- -- --
2021-02-21 02:00:00 -- -- -- -- -- -- -- -- --
2021-02-21 01:00:00 -- -- -- -- -- -- -- -- --
2021-02-21 00:00:00 -- -- -- -- -- -- -- -- --
2021-02-20 23:00:00 -- -- -- -- -- -- -- -- --
2021-02-20 22:00:00 -- -- -- -- -- -- -- -- --
2021-02-20 21:00:00 -- -- -- -- -- -- -- -- --
2021-02-20 20:00:00 -- -- -- -- -- -- -- -- --
2021-02-20 19:00:00 -- -- -- -- -- -- -- -- --
2021-02-20 18:00:00 -- -- -- -- -- -- -- -- --
2021-02-20 17:00:00 -- -- -- -- -- -- -- -- --
2021-02-20 16:00:00 -- -- -- -- -- -- -- -- --
2021-02-20 15:00:00 -- -- -- -- -- -- -- -- --
2021-02-20 14:00:00 -- -- -- -- -- -- -- -- --
2021-02-20 13:00:00 -- -- -- -- -- -- -- -- --
2021-02-20 12:00:00 -- -- -- -- -- -- -- -- --
2021-02-20 11:00:00 -- -- -- -- -- -- -- -- --
2021-02-20 10:00:00 -- -- -- -- -- -- -- -- --
2021-02-20 09:00:00 -- -- -- -- -- -- -- -- --
2021-02-20 08:00:00 -- -- -- -- -- -- -- -- --
2021-02-20 07:00:00 -- -- -- -- -- -- -- -- --
2021-02-20 06:00:00 -- -- -- -- -- -- -- -- --
2021-02-20 05:00:00 -- -- -- -- -- -- -- -- --
2021-02-20 04:00:00 -- -- -- -- -- -- -- -- --
2021-02-20 03:00:00 -- -- -- -- -- -- -- -- --
2021-02-20 02:00:00 -- -- -- -- -- -- -- -- --
2021-02-20 01:00:00 -- -- -- -- -- -- -- -- --
2021-02-20 00:00:00 -- -- -- -- -- -- -- -- --
2021-02-19 23:00:00 -- -- -- -- -- -- -- -- --
2021-02-19 22:00:00 -- -- -- -- -- -- -- -- --
2021-02-19 21:00:00 -- -- -- -- -- -- -- -- --
2021-02-19 20:00:00 -- -- -- -- -- -- -- -- --
2021-02-19 19:00:00 -- -- -- -- -- -- -- -- --
2021-02-19 18:00:00 -- -- -- -- -- -- -- -- --
2021-02-19 17:00:00 -- -- -- -- -- -- -- -- --
2021-02-19 16:00:00 18.7 13 Oeste 20 Oeste 0 -- -- 61
2021-02-19 15:00:00 18.5 8 Oeste 16 Noroeste 0 -- -- 60
2021-02-19 14:00:00 16.6 3 Noroeste 8 Noroeste 0 -- -- 64
2021-02-19 13:00:00 15.2 3 Sur 12 Este 0 -- -- 72
2021-02-19 12:00:00 13 8 Este 15 Este 0 -- -- 83
2021-02-19 11:00:00 10.1 10 Nordeste 17 Este 0 -- -- 100
2021-02-19 10:00:00 9 9 Nordeste 20 Nordeste 0 -- -- 100
2021-02-19 09:00:00 9.5 8 Este 15 Este 0 -- -- 100
2021-02-19 08:00:00 9 4 Nordeste 9 Nordeste 0 -- -- 100
2021-02-19 07:00:00 9.2 5 Norte 13 Nordeste 0 -- -- 99
2021-02-19 06:00:00 9.5 6 Nordeste 14 Nordeste 0.2 -- -- 100
2021-02-19 05:00:00 9.1 6 Este 13 Este 0 -- -- 100
2021-02-19 04:00:00 8.8 6 Este 14 Este 0 -- -- 99
2021-02-19 03:00:00 8.6 4 Este 9 Este 0 -- -- 99
2021-02-19 02:00:00 7.6 6 Este 10 Este 0 -- -- 98
2021-02-19 01:00:00 8.4 4 Sudeste 5 Este 0 -- -- 98
2021-02-19 00:00:00 8.8 5 Sudeste 9 Sudeste 0 -- -- 97
2021-02-18 23:00:00 9.5 3 Este 7 Este 0 -- -- 96
2021-02-18 22:00:00 10.4 5 Este 8 Este 0 -- -- 95
2021-02-18 21:00:00 11.3 2 Este 4 Sudeste 0 -- -- 93
2021-02-18 20:00:00 12.5 0 Calma 5 Noroeste 0 -- -- 90
2021-02-18 19:00:00 14 3 Oeste 9 Oeste 0 -- -- 86
2021-02-18 18:00:00 15.3 7 Oeste 12 Noroeste 0 -- -- 82
2021-02-18 17:00:00 15.5 8 Oeste 17 Oeste 0 -- -- 81
2021-02-18 16:00:00 13.6 5 Sudoeste 20 Oeste 0 -- -- 86
2021-02-18 15:00:00 13.7 9 Sudoeste 19 Oeste 0 -- -- 85
2021-02-18 14:00:00 12.7 10 Oeste 17 Oeste 0 -- -- 89
2021-02-18 13:00:00 12 7 Oeste 14 Oeste 0 -- -- 91
2021-02-18 12:00:00 10.6 2 Nordeste 8 Sudeste 0 -- -- 97
2021-02-18 11:00:00 9.3 5 Este 8 Sudeste 0 -- -- 98
2021-02-18 10:00:00 8.1 4 Nordeste 6 Este 0 -- -- 97
2021-02-18 09:00:00 7.3 4 Nordeste 8 Este 0 -- -- 97
2021-02-18 08:00:00 6.7 5 Este 10 Este 0 -- -- 96
2021-02-18 07:00:00 6.9 3 Este 7 Sudeste 0 -- -- 96
2021-02-18 06:00:00 7 4 Este 7 Este 0 -- -- 95
2021-02-18 05:00:00 7.2 3 Este 5 Este 0 -- -- 93
2021-02-18 04:00:00 8 0 Calma 8 Sudeste 0 -- -- 87
2021-02-18 03:00:00 8.8 3 Este 6 Sudeste 0 -- -- 90
2021-02-18 02:00:00 9.5 4 Este 7 Sudeste 0 -- -- 87
2021-02-18 01:00:00 10.1 7 Este 11 Este 0 -- -- 81
2021-02-18 00:00:00 10.5 3 Este 6 Sudeste 0 -- -- 77
2021-02-17 23:00:00 11.6 5 Sudeste 8 Sudeste 0 -- -- 73
2021-02-17 22:00:00 12.8 4 Sudeste 6 Sudeste 0 -- -- 69
2021-02-17 21:00:00 13.9 3 Este 9 Este 0 -- -- 63
2021-02-17 20:00:00 17.1 -- -- -- -- 0 -- -- 48
2021-02-17 19:00:00 20.1 0 Calma 3 Norte 0 -- -- 41
2021-02-17 18:00:00 21.9 2 Noroeste 6 Noroeste 0 -- -- 34
2021-02-17 17:00:00 22 0 Calma 9 Nordeste 0 -- -- 36
2021-02-17 16:00:00 21.1 4 Nordeste 13 Este 0 -- -- 36
2021-02-17 15:00:00 20.1 9 Este 20 Este 0 -- -- 39
2021-02-17 14:00:00 18.7 10 Este 25 Este 0 -- -- 48
2021-02-17 13:00:00 17 18 Este 30 Este 0 -- -- 46
2021-02-17 12:00:00 15 12 Este 22 Nordeste 0 -- -- 60
2021-02-17 11:00:00 11.2 8 Este 15 Este 0 -- -- 81
2021-02-17 10:00:00 8.8 8 Este 13 Este 0 -- -- 91
2021-02-17 09:00:00 6.7 7 Este 13 Este 0 -- -- 97
2021-02-17 08:00:00 5.8 9 Este 13 Este 0 -- -- 96
2021-02-17 07:00:00 6.2 6 Este 9 Este 0 -- -- 96
2021-02-17 06:00:00 6.6 7 Este 10 Este 0 -- -- 96
2021-02-17 05:00:00 7 8 Este 10 Este 0 -- -- 95
2021-02-17 04:00:00 7.7 6 Este 13 Nordeste 0 -- -- 93
2021-02-17 03:00:00 7.6 7 Este 9 Nordeste 0 -- -- 93
2021-02-17 02:00:00 8.7 3 Este 8 Este 0 -- -- 91
2021-02-17 01:00:00 9.5 6 Este 9 Este 0 -- -- 89
2021-02-17 00:00:00 10.3 4 Sudeste 10 Sudeste 0 -- -- 83
2021-02-16 23:00:00 11.1 5 Este 9 Este 0 -- -- 77
2021-02-16 22:00:00 12 4 Este 10 Este 0 -- -- 75
2021-02-16 21:00:00 13.3 5 Este 7 Este 0 -- -- 68
2021-02-16 20:00:00 15.5 0 Calma 2 Este 0 -- -- 62
2021-02-16 19:00:00 17.8 2 Este 6 Nordeste 0 -- -- 55
2021-02-16 18:00:00 19.4 4 Norte 8 Nordeste 0 -- -- 47
2021-02-16 17:00:00 19.5 4 Nordeste 14 Este 0 -- -- 45
2021-02-16 16:00:00 18.8 6 Nordeste 19 Nordeste 0 -- -- 47
2021-02-16 15:00:00 18.2 7 Nordeste 20 Nordeste 0 -- -- 50
2021-02-16 14:00:00 16.9 10 Nordeste 17 Este 0 -- -- 54
2021-02-16 13:00:00 15.4 10 Nordeste 18 Este 0 -- -- 57
2021-02-16 12:00:00 13.7 13 Nordeste 22 Este 0 -- -- 62
2021-02-16 11:00:00 11.7 11 Nordeste 22 Este 0 -- -- 71
2021-02-16 10:00:00 8.8 9 Este 18 Este 0 -- -- 87
2021-02-16 09:00:00 6.7 7 Este 15 Este 0 -- -- 95
2021-02-16 08:00:00 5.8 8 Este 18 Este 0 -- -- 95
2021-02-16 07:00:00 5.7 8 Este 14 Nordeste 0 -- -- 93
2021-02-16 06:00:00 7.3 4 Este 12 Este 0 -- -- 89
2021-02-16 05:00:00 7.7 6 Este 12 Este 0 -- -- 87
2021-02-16 04:00:00 7.9 7 Este 10 Este 0 -- -- 86
2021-02-16 03:00:00 8.4 5 Este 10 Este 0 -- -- 81
2021-02-16 02:00:00 8.8 6 Este 10 Este 0 -- -- 79
2021-02-16 01:00:00 9.2 5 Este 7 Este 0 -- -- 75
2021-02-16 00:00:00 10.9 3 Este 17 Sudeste 0 -- -- 66
2021-02-15 23:00:00 12 13 Sudeste 27 Sudeste 0 -- -- 61
2021-02-15 22:00:00 11.5 7 Sudeste 15 Sur 0 -- -- 63
2021-02-15 21:00:00 12.5 11 Sur 17 Sur 0 -- -- 58
2021-02-15 20:00:00 13.8 11 Sudeste 21 Sudeste 0 -- -- 52
2021-02-15 19:00:00 15.7 10 Sudeste 21 Sudeste 0 -- -- 49
2021-02-15 18:00:00 18.5 17 Sudeste 29 Sur 0 -- -- 39
2021-02-15 17:00:00 19.6 15 Sur 30 Sudeste 0 -- -- 38
2021-02-15 16:00:00 19.8 18 Sur 29 Sudeste 0 -- -- 41
2021-02-15 15:00:00 19.6 19 Sudeste 29 Sudeste 0 -- -- 43
2021-02-15 14:00:00 18.5 13 Este 27 Este 0 -- -- 47
2021-02-15 13:00:00 17 12 Este 23 Este 0 -- -- 50
2021-02-15 12:00:00 15.2 16 Este 37 Este 0 -- -- 58
2021-02-15 11:00:00 13.6 15 Este 28 Este 0 -- -- 62
2021-02-15 10:00:00 11.5 10 Sudeste 16 Sudeste 0 -- -- 75
2021-02-15 09:00:00 8.8 9 Sudeste 14 Este 0 -- -- 90
2021-02-15 08:00:00 6.5 4 Este 9 Este 0 -- -- 95
2021-02-15 07:00:00 6.8 5 Este 11 Este 0 -- -- 95
2021-02-15 06:00:00 7.4 6 Este 12 Este 0 -- -- 92
2021-02-15 05:00:00 7.9 5 Este 10 Este 0 -- -- 92
2021-02-15 04:00:00 8.4 3 Este 15 Sudeste 0 -- -- 87
2021-02-15 03:00:00 9.3 8 Este 12 Este 0 -- -- 80
2021-02-15 02:00:00 10 11 Este 16 Este 0 -- -- 76
2021-02-15 01:00:00 10.9 5 Este 15 Sudeste 0 -- -- 72
2021-02-15 00:00:00 10.7 2 Sur 7 Sudeste 0 -- -- 76
2021-02-14 23:00:00 10.7 4 Este 6 Este 0 -- -- 76
2021-02-14 22:00:00 11.9 0 Calma 6 Este 0 -- -- 67
2021-02-14 21:00:00 12.5 0 Calma 10 Sur 0 -- -- 65
2021-02-14 20:00:00 14.5 8 Sur 18 Sur 0 -- -- 55
2021-02-14 19:00:00 16.9 11 Sur 22 Sur 0 -- -- 45
2021-02-14 18:00:00 19.9 9 Sur 16 Sur 0 -- -- 37
2021-02-14 17:00:00 20.7 10 Este 17 Este 0 -- -- 39
2021-02-14 16:00:00 20.8 7 Este 19 Este 0 -- -- 40
2021-02-14 15:00:00 19.7 12 Nordeste 20 Este 0 -- -- 55
2021-02-14 14:00:00 18.8 14 Este 22 Sudeste 0 -- -- 59
2021-02-14 13:00:00 17.2 13 Este 27 Este 0 -- -- 64
2021-02-14 12:00:00 15.2 16 Este 23 Este 0 -- -- 68
2021-02-14 11:00:00 12.9 11 Nordeste 19 Este 0 -- -- 78
2021-02-14 10:00:00 9.7 8 Nordeste 13 Este 0 -- -- 89
2021-02-14 09:00:00 7.4 7 Nordeste 12 Este 0 -- -- 92
2021-02-14 08:00:00 6.2 6 Nordeste 10 Este 0 -- -- 94
2021-02-14 07:00:00 6.2 4 Norte 9 Nordeste 0 -- -- 92
2021-02-14 06:00:00 6.6 5 Nordeste 9 Nordeste 0 -- -- 94
2021-02-14 05:00:00 7.1 4 Este 9 Este 0 -- -- 95
2021-02-14 04:00:00 7.5 6 Este 10 Este 0 -- -- 93
2021-02-14 03:00:00 7.9 3 Este 5 Este 0 -- -- 94
2021-02-14 02:00:00 8.3 7 Este 11 Este 0 -- -- 93
2021-02-14 01:00:00 8.9 6 Este 12 Nordeste 0 -- -- 91
2021-02-14 00:00:00 10.4 3 Sudeste 6 Este 0 -- -- 91
2021-02-13 23:00:00 11.1 2 Nordeste 7 Sudeste 0 -- -- 92
2021-02-13 22:00:00 11.8 4 Este 12 Nordeste 0 -- -- 90
2021-02-13 21:00:00 12.3 4 Este 9 Este 0 -- -- 87
2021-02-13 20:00:00 14.7 0 Calma 5 Sudoeste 0 -- -- 78
2021-02-13 19:00:00 17.7 3 Sur 6 Sur 0 -- -- 66
2021-02-13 18:00:00 19.4 3 Sur 10 Sudeste 0 -- -- 60
2021-02-13 17:00:00 19.4 2 Sudeste 9 Sudeste 0 -- -- 55
2021-02-13 16:00:00 18.8 2 Sudeste 11 Este 0 -- -- 56
2021-02-13 15:00:00 17.5 3 Norte 13 Nordeste 0 -- -- 58
2021-02-13 14:00:00 15.7 6 Nordeste 14 Este 0 -- -- 71
2021-02-13 13:00:00 14.5 7 Este 14 Este 0 -- -- 75
2021-02-13 08:00:00 -- -- -- -- -- -- -- -- --
2021-02-13 07:00:00 7.4 4 Este 8 Este 0 -- -- 97
2021-02-13 06:00:00 7.5 3 Este 8 Nordeste 0 -- -- 97
2021-02-13 05:00:00 7.3 5 Nordeste 8 Este 0 -- -- 95
2021-02-13 04:00:00 7.9 5 Este 8 Nordeste 0 -- -- 94
2021-02-13 03:00:00 8.4 3 Nordeste 9 Norte 0 -- -- 93
2021-02-13 02:00:00 8.5 3 Nordeste 9 Nordeste 0 -- -- 94
2021-02-13 01:00:00 9.3 2 Sur 7 Sudoeste 0 -- -- 92
2021-02-13 00:00:00 9.8 2 Sudeste 6 Sudeste 0 -- -- 89
2021-02-12 23:00:00 10.8 2 Nordeste 10 Sudeste 0 -- -- 85
2021-02-12 22:00:00 11.4 3 Este 12 Sudeste 0 -- -- 83
2021-02-12 21:00:00 13.1 2 Sudeste 15 Noroeste 0 -- -- 76
2021-02-12 20:00:00 14.6 5 Noroeste 11 Oeste 0 -- -- 69
2021-02-12 19:00:00 16.2 5 Noroeste 18 Noroeste 0 -- -- 61
2021-02-12 18:00:00 18.2 8 Noroeste 19 Noroeste 0 -- -- 55
2021-02-12 17:00:00 18.4 12 Noroeste 24 Oeste 0 -- -- 54
2021-02-12 16:00:00 18.4 10 Noroeste 23 Oeste 0 -- -- 55
2021-02-12 15:00:00 18 12 Noroeste 23 Noroeste 0 -- -- 57
2021-02-12 14:00:00 17.3 11 Noroeste 25 Norte 0 -- -- 63
2021-02-12 13:00:00 16.5 8 Noroeste 26 Norte 0 -- -- 68
2021-02-12 12:00:00 15.7 15 Noroeste 30 Noroeste 0 -- -- 69
2021-02-12 11:00:00 14.6 20 Noroeste 31 Norte 0 -- -- 77
2021-02-12 10:00:00 14.6 7 Oeste 13 Oeste 0 -- -- 95
2021-02-12 09:00:00 13.9 11 Sudoeste 24 Oeste 0.2 -- -- 98
2021-02-12 08:00:00 14 10 Sudoeste 20 Oeste 0 -- -- 99
2021-02-12 07:00:00 13.9 8 Sudoeste 18 Sudoeste 0.2 -- -- 99
2021-02-12 06:00:00 13.9 9 Sudoeste 21 Sudoeste 0 -- -- 99
2021-02-12 05:00:00 13.8 10 Sudoeste 21 Sudoeste 0 -- -- 99
2021-02-12 04:00:00 13.6 12 Sudoeste 22 Sudoeste 0 -- -- 98
2021-02-12 03:00:00 13.7 7 Sudoeste 22 Oeste 0 -- -- 99
2021-02-12 02:00:00 13.5 4 Sudoeste 12 Sudoeste 0 -- -- 99
2021-02-12 01:00:00 13.7 3 Sudoeste 6 Sudoeste 0 -- -- 99
2021-02-12 00:00:00 13.9 0 Calma 5 Oeste 0 -- -- 99
2021-02-11 23:00:00 13.8 3 Sur 4 Sur 0 -- -- 98
2021-02-11 22:00:00 14.1 0 Calma 2 Norte 0 -- -- 97
2021-02-11 21:00:00 14.4 0 Calma 6 Sur 0 -- -- 97
2021-02-11 20:00:00 14.5 5 Sur 7 Sur 0 -- -- 95
2021-02-11 19:00:00 15.5 4 Sur 6 Sudeste 0 -- -- 93
2021-02-11 18:00:00 15.8 3 Oeste 10 Oeste 0 -- -- 90
2021-02-11 17:00:00 16.1 3 Oeste 9 Oeste 0 -- -- 87
2021-02-11 16:00:00 15.7 8 Oeste 19 Oeste 0 -- -- 89
2021-02-11 15:00:00 16.4 3 Oeste 8 Sudoeste 0 -- -- 85
2021-02-11 14:00:00 15.8 3 Norte 12 Oeste 0 -- -- 92
2021-02-11 13:00:00 15.9 3 Sudoeste 13 Sudoeste 0.2 -- -- 91
2021-02-11 12:00:00 15.1 5 Sur 9 Sur 0 -- -- 96
2021-02-11 11:00:00 14.9 3 Noroeste 9 Oeste 0 -- -- 96
2021-02-11 10:00:00 14.2 4 Oeste 11 Oeste 0 -- -- 99
2021-02-11 09:00:00 13.9 4 Oeste 15 Oeste 0 -- -- 99
2021-02-11 08:00:00 13.9 8 Oeste 14 Oeste 0 -- -- 99
2021-02-11 07:00:00 14.1 6 Oeste 13 Sudoeste 0.6 -- -- 100
2021-02-11 06:00:00 14 3 Sudoeste 8 Oeste 0 -- -- 99
2021-02-11 05:00:00 14.1 6 Sudoeste 14 Sudoeste 0 -- -- 99
2021-02-11 04:00:00 14.3 9 Sudoeste 18 Sudoeste 0 -- -- 99
2021-02-11 03:00:00 14.4 8 Sudoeste 18 Sudoeste 0 -- -- 99
2021-02-11 02:00:00 14.5 10 Sudoeste 24 Oeste 0 -- -- 99
2021-02-11 01:00:00 14.6 17 Oeste 27 Oeste 0 -- -- 98
2021-02-11 00:00:00 14.8 14 Oeste 28 Oeste 0 -- -- 98
2021-02-10 23:00:00 14.8 15 Sudoeste 30 Sudoeste 0 -- -- 98
2021-02-10 22:00:00 14.7 18 Sudoeste 31 Sudoeste 0 -- -- 98
2021-02-10 21:00:00 14.9 12 Sudoeste 26 Sudoeste 1 -- -- 98
2021-02-10 20:00:00 15 13 Sudoeste 28 Sudoeste 1.4 -- -- 98
2021-02-10 19:00:00 15.5 11 Oeste 31 Oeste 2.6 -- -- 98
2021-02-10 18:00:00 16 16 Oeste 35 Oeste 0.6 -- -- 97
2021-02-10 17:00:00 16.7 18 Oeste 36 Oeste 0 -- -- 94
2021-02-10 16:00:00 16.9 21 Oeste 35 Oeste 0.2 -- -- 94
2021-02-10 15:00:00 16.8 17 Oeste 35 Oeste 0.4 -- -- 94
2021-02-10 14:00:00 16.7 23 Oeste 37 Oeste 0 -- -- 93
2021-02-10 13:00:00 15.4 17 Oeste 36 Oeste 0.2 -- -- 97
2021-02-10 12:00:00 14.9 26 Oeste 49 Oeste 0 -- -- 97
2021-02-10 11:00:00 14.5 30 Oeste 52 Oeste 0.2 -- -- 97
2021-02-10 10:00:00 14.1 28 Sudoeste 49 Oeste 0.4 -- -- 96
2021-02-10 09:00:00 13.9 22 Sudoeste 48 Sudoeste 0.2 -- -- 95
2021-02-10 08:00:00 13.8 23 Oeste 44 Oeste 0.4 -- -- 97
2021-02-10 07:00:00 13.1 15 Sudoeste 35 Oeste 0.8 -- -- 97
2021-02-10 06:00:00 13.2 19 Sudoeste 39 Sudoeste 0 -- -- 95
2021-02-10 05:00:00 12.7 9 Sudoeste 22 Sudoeste 0 -- -- 96
2021-02-10 04:00:00 12.5 10 Oeste 23 Oeste 0 -- -- 95
2021-02-10 03:00:00 12.2 14 Oeste 30 Oeste 0 -- -- 96
2021-02-10 02:00:00 12.1 17 Oeste 32 Oeste 0 -- -- 96
2021-02-10 01:00:00 12.3 17 Oeste 35 Oeste 0 -- -- 95
2021-02-10 00:00:00 12.5 17 Oeste 36 Oeste 0 -- -- 94
2021-02-09 23:00:00 12.5 18 Sudoeste 36 Sudoeste 0 -- -- 95
2021-02-09 22:00:00 12.9 17 Sudoeste 42 Oeste 0.2 -- -- 95
2021-02-09 21:00:00 13.5 19 Oeste 49 Sudoeste 0.8 -- -- 96
2021-02-09 20:00:00 13.7 18 Sudoeste 46 Sudoeste 1.6 -- -- 96
2021-02-09 19:00:00 13.6 16 Sudoeste 46 Sudoeste 0.8 -- -- 95
2021-02-09 18:00:00 14.6 24 Sudoeste 48 Sudoeste 0 -- -- 89
2021-02-09 17:00:00 14.3 22 Sudoeste 46 Oeste 0 -- -- 89
2021-02-09 16:00:00 13.8 29 Oeste 55 Sudoeste 0.8 -- -- 91
2021-02-09 15:00:00 13.1 29 Oeste 60 Sudoeste 3.8 -- -- 95
2021-02-09 14:00:00 14.7 25 Sudoeste 51 Sudoeste 0 -- -- 85
2021-02-09 13:00:00 14.7 26 Sudoeste 55 Sudoeste 0 -- -- 86
2021-02-09 12:00:00 14.4 23 Sudoeste 45 Sudoeste 0 -- -- 85
2021-02-09 11:00:00 13.1 22 Sudoeste 48 Sudoeste 0.2 -- -- 91
2021-02-09 10:00:00 12.4 17 Sudoeste 30 Sur 0 -- -- 92
2021-02-09 09:00:00 11.3 12 Sudoeste 25 Sudoeste 0 -- -- 96
2021-02-09 08:00:00 11 13 Sudoeste 24 Sudoeste 0 -- -- 98
2021-02-09 07:00:00 11.3 8 Sudoeste 27 Oeste 0.6 -- -- 98
2021-02-09 06:00:00 11.3 8 Sudoeste 16 Sudoeste 0.2 -- -- 98
2021-02-09 05:00:00 10.9 5 Oeste 15 Oeste 0 -- -- 98
2021-02-09 04:00:00 10.5 8 Sudoeste 18 Sudoeste 0 -- -- 98
2021-02-09 03:00:00 10.3 9 Sudoeste 17 Sudoeste 0 -- -- 97
2021-02-09 02:00:00 10.4 9 Sudoeste 18 Sudoeste 0 -- -- 97
2021-02-09 01:00:00 10.4 8 Sudoeste 15 Oeste 0 -- -- 96
2021-02-09 00:00:00 10.6 8 Oeste 18 Sudoeste 0 -- -- 94
2021-02-08 23:00:00 11.2 7 Sudoeste 17 Sudoeste 0 -- -- 93
2021-02-08 22:00:00 11.9 11 Sudoeste 33 Sudoeste 0 -- -- 89
2021-02-08 21:00:00 12.1 15 Sudoeste 39 Oeste 0 -- -- 87
2021-02-08 20:00:00 12.5 16 Oeste 33 Oeste 0 -- -- 85
2021-02-08 19:00:00 13.2 19 Oeste 36 Oeste 0 -- -- 80
2021-02-08 18:00:00 14.1 23 Oeste 42 Sudoeste 0 -- -- 76
2021-02-08 17:00:00 14.8 27 Oeste 45 Oeste 0 -- -- 72
2021-02-08 16:00:00 15.3 21 Oeste 43 Oeste 0 -- -- 73
2021-02-08 15:00:00 14.2 30 Oeste 46 Oeste 0 -- -- 70
2021-02-08 14:00:00 14.1 22 Oeste 37 Oeste 0 -- -- 81
2021-02-08 13:00:00 12.8 15 Oeste 35 Oeste 0 -- -- 87
2021-02-08 12:00:00 13.1 17 Sudoeste 31 Sudoeste 0 -- -- 85
2021-02-08 11:00:00 11.8 12 Sudoeste 28 Sudoeste 0 -- -- 90
2021-02-08 10:00:00 11 9 Sudoeste 21 Sudoeste 0 -- -- 87
2021-02-08 09:00:00 10.4 10 Sudoeste 18 Oeste 0 -- -- 87
2021-02-08 08:00:00 11.6 15 Oeste 36 Oeste 0 -- -- 79
2021-02-08 07:00:00 13.2 18 Oeste 63 Sudoeste 0.6 -- -- 94
2021-02-08 06:00:00 12.6 30 Sudoeste 60 Sudoeste 3 -- -- 97
2021-02-08 05:00:00 12.3 25 Sudoeste 60 Sudoeste 1.6 -- -- 96
2021-02-08 04:00:00 12.1 19 Sudoeste 42 Sudoeste 1.6 -- -- 97
2021-02-08 03:00:00 11.5 17 Sudoeste 32 Sudoeste 0.8 -- -- 97
2021-02-08 02:00:00 11 13 Sudoeste 28 Sudoeste 0.6 -- -- 97
2021-02-08 01:00:00 10.8 13 Sudoeste 24 Sudoeste 0.2 -- -- 95
2021-02-08 00:00:00 11.1 14 Sudoeste 25 Sudoeste 0 -- -- 86
2021-02-07 23:00:00 11.3 9 Sudoeste 22 Sudoeste 0 -- -- 82
2021-02-07 22:00:00 11.6 11 Sudoeste 21 Sudoeste 0 -- -- 77
2021-02-07 21:00:00 11.4 10 Sudoeste 24 Oeste 0 -- -- 73
2021-02-07 20:00:00 11.5 15 Oeste 26 Oeste 0 -- -- 69
2021-02-07 19:00:00 12 13 Oeste 40 Oeste 0 -- -- 66
2021-02-07 18:00:00 13.2 18 Oeste 42 Oeste 0 -- -- 59
2021-02-07 17:00:00 14.1 24 Oeste 46 Oeste 0 -- -- 56
2021-02-07 16:00:00 14.9 26 Oeste 40 Oeste 0 -- -- 57
2021-02-07 15:00:00 14.7 18 Oeste 34 Oeste 0 -- -- 64
2021-02-07 14:00:00 13.9 14 Oeste 24 Oeste 0 -- -- 76
2021-02-07 13:00:00 13.3 10 Oeste 21 Oeste 0 -- -- 76
2021-02-07 12:00:00 13 8 Sudoeste 21 Oeste 0 -- -- 80
2021-02-07 11:00:00 11.1 9 Oeste 21 Oeste 0 -- -- 94
2021-02-07 10:00:00 10.4 8 Oeste 18 Oeste 0 -- -- 96
2021-02-07 09:00:00 10 9 Oeste 16 Oeste 0 -- -- 98
2021-02-07 08:00:00 9.7 6 Sudoeste 14 Oeste 0 -- -- 98
2021-02-07 07:00:00 9.7 7 Oeste 17 Oeste 0 -- -- 97
2021-02-07 06:00:00 9.9 6 Oeste 11 Sudoeste 0 -- -- 97
2021-02-07 05:00:00 9.9 4 Sudoeste 13 Oeste 0 -- -- 97
2021-02-07 04:00:00 10 5 Oeste 13 Oeste 0 -- -- 96
2021-02-07 03:00:00 10 8 Sudoeste 18 Oeste 0 -- -- 95
2021-02-07 02:00:00 10.2 9 Oeste 23 Oeste 0 -- -- 93
2021-02-07 01:00:00 10.3 9 Sudoeste 22 Oeste 0 -- -- 92
2021-02-07 00:00:00 10.2 10 Sudoeste 18 Sudoeste 0 -- -- 92
2021-02-06 23:00:00 10.4 10 Sudoeste 20 Sudoeste 0 -- -- 90
2021-02-06 22:00:00 10.6 10 Sudoeste 18 Sudoeste 0 -- -- 91
2021-02-06 21:00:00 11.4 8 Sudoeste 22 Oeste 0 -- -- 87
2021-02-06 20:00:00 12.1 6 Sudoeste 23 Sudoeste 0 -- -- 84
2021-02-06 19:00:00 12.4 8 Sudoeste 32 Oeste 0 -- -- 82
2021-02-06 18:00:00 13.1 10 Oeste 32 Oeste 0 -- -- 78
2021-02-06 17:00:00 14.3 16 Sudoeste 38 Sudoeste 0 -- -- 70
2021-02-06 16:00:00 14.6 18 Sudoeste 39 Sudoeste 0 -- -- 68
2021-02-06 15:00:00 14.8 16 Sudoeste 34 Sudoeste 0 -- -- 70
2021-02-06 14:00:00 14 16 Sudoeste 35 Sudoeste 0 -- -- 72
2021-02-06 13:00:00 14.1 19 Oeste 33 Oeste 0 -- -- 73
2021-02-06 12:00:00 12.9 17 Oeste 29 Oeste 0 -- -- 83
2021-02-06 11:00:00 11.9 12 Sudoeste 22 Sudoeste 0.2 -- -- 92
2021-02-06 10:00:00 10.8 11 Sudoeste 27 Sudoeste 0.2 -- -- 94
2021-02-06 09:00:00 10.6 13 Sudoeste 27 Sudoeste 0 -- -- 93
2021-02-06 08:00:00 10.2 11 Sur 26 Sudoeste 0 -- -- 94
2021-02-06 07:00:00 9.9 13 Sudoeste 26 Sudoeste 0 -- -- 94
2021-02-06 06:00:00 10.2 12 Sudoeste 31 Sudoeste 0 -- -- 94
2021-02-06 05:00:00 10.8 16 Sudoeste 32 Sudoeste 0 -- -- 94
2021-02-06 04:00:00 10.9 12 Sudoeste 18 Sur 2 -- -- 97
2021-02-06 03:00:00 10.8 7 Sur 24 Sur 0.6 -- -- 94
2021-02-06 02:00:00 11.1 6 Este 12 Sur 0 -- -- 92
2021-02-06 01:00:00 11.3 5 Sur 16 Sur 0 -- -- 89
2021-02-06 00:00:00 12.1 9 Sur 14 Sur 0 -- -- 86
2021-02-05 23:00:00 12.3 9 Sur 14 Sur 0 -- -- 87
2021-02-05 22:00:00 12.5 7 Sudeste 12 Sudeste 0 -- -- 89
2021-02-05 21:00:00 12.8 3 Sur 13 Sudoeste 0 -- -- 87
2021-02-05 20:00:00 13.2 8 Sudoeste 25 Sudoeste 0 -- -- 84
2021-02-05 19:00:00 13.7 3 Sur 5 Sur 0 -- -- 86
2021-02-05 18:00:00 14.1 3 Noroeste 15 Oeste 0 -- -- 84
2021-02-05 17:00:00 14.7 11 Oeste 25 Oeste 0 -- -- 81
2021-02-05 16:00:00 14.8 7 Sudoeste 15 Sudoeste 0 -- -- 86
2021-02-05 15:00:00 14.6 5 Sudoeste 10 Noroeste 0 -- -- 84
2021-02-05 14:00:00 13.9 7 Noroeste 15 Noroeste 0 -- -- 88
2021-02-05 13:00:00 13.2 5 Oeste 18 Oeste 0 -- -- 91
2021-02-05 12:00:00 12.5 10 Sudoeste 18 Oeste 0 -- -- 93
2021-02-05 11:00:00 12.1 6 Sudoeste 10 Sudoeste 0 -- -- 92
2021-02-05 10:00:00 11.8 3 Sudoeste 14 Sur 0 -- -- 93
2021-02-05 09:00:00 10.3 4 Sur 12 Sudoeste 0 -- -- 95
2021-02-05 08:00:00 9.4 4 Este 6 Nordeste 0 -- -- 97
2021-02-05 07:00:00 9.9 3 Este 10 Noroeste 0 -- -- 96
2021-02-05 06:00:00 10.7 4 Sur 11 Este 0 -- -- 95
2021-02-05 05:00:00 11 6 Este 13 Este 0 -- -- 95
2021-02-05 04:00:00 11.1 6 Nordeste 10 Nordeste 0 -- -- 95
2021-02-05 03:00:00 11.1 2 Nordeste 10 Este 0 -- -- 95
2021-02-05 02:00:00 11.5 3 Sur 10 Nordeste 0 -- -- 94
2021-02-05 01:00:00 12.2 7 Nordeste 19 Este 0 -- -- 91
2021-02-05 00:00:00 12.7 8 Este 13 Este 0 -- -- 90
2021-02-04 23:00:00 12 6 Este 12 Este 0 -- -- 92
2021-02-04 22:00:00 12.1 9 Este 14 Este 0 -- -- 92
2021-02-04 21:00:00 12.2 6 Este 9 Este 0 -- -- 92
2021-02-04 20:00:00 14 5 Sudeste 8 Este 0 -- -- 83
2021-02-04 19:00:00 15.6 3 Este 6 Noroeste 0 -- -- 80
2021-02-04 18:00:00 17 0 Calma 17 Oeste 0 -- -- 70
2021-02-04 17:00:00 19 13 Oeste 19 Oeste 0 -- -- 66
2021-02-04 16:00:00 18.2 7 Oeste 18 Oeste 0 -- -- 69
2021-02-04 15:00:00 19.1 7 Oeste 22 Oeste 0 -- -- 63
2021-02-04 14:00:00 17.3 9 Noroeste 17 Sudoeste 0 -- -- 70
2021-02-04 13:00:00 15.4 3 Norte 12 Noroeste 0 -- -- 79
2021-02-04 12:00:00 14.3 4 Este 14 Sudeste 0 -- -- 82
2021-02-04 11:00:00 13.5 9 Este 18 Este 0 -- -- 86
2021-02-04 10:00:00 11.6 5 Este 12 Este 0 -- -- 93
2021-02-04 09:00:00 11.3 7 Este 15 Este 0 -- -- 92
2021-02-04 08:00:00 11.4 6 Este 15 Este 0 -- -- 91
2021-02-04 07:00:00 11.5 9 Este 18 Este 0 -- -- 91
2021-02-04 06:00:00 11.6 9 Este 14 Nordeste 0 -- -- 92
2021-02-04 05:00:00 11.5 3 Este 9 Este 0 -- -- 94
2021-02-04 04:00:00 11.2 5 Este 9 Este 0 -- -- 95
2021-02-04 03:00:00 11.2 5 Este 10 Este 0 -- -- 95
2021-02-04 02:00:00 11.8 5 Este 6 Nordeste 0 -- -- 94
2021-02-04 01:00:00 12.4 5 Este 7 Este 0 -- -- 93
2021-02-04 00:00:00 12.9 0 Calma 6 Sudeste 0 -- -- 90